Time;durP1;ratioP1;P1;durP2;ratioP2;P2;SDS_P1;SDS_P2;PMS_P1;PMS_P2;Temp;Humidity;BMP_temperature;BMP_pressure;BME280_temperature;BME280_humidity;BME280_pressure;Samples;Min_cycle;Max_cycle;Signal;HPM_P1;HPM_P2
2022/07/19 00:00:14;;;;;;;3.80;1.70;;;22.00;54.30;;;;;;5049673;28;20554;-62
2022/07/19 00:02:40;;;;;;;2.88;1.50;;;22.00;54.30;;;;;;5047586;28;20115;-62
2022/07/19 00:05:07;;;;;;;3.22;1.40;;;22.00;54.30;;;;;;5046101;28;20636;-62
2022/07/19 00:07:32;;;;;;;4.70;1.92;;;22.00;54.30;;;;;;5045556;28;20040;-62
2022/07/19 00:09:57;;;;;;;3.92;1.77;;;22.00;54.30;;;;;;5045068;28;20029;-62
2022/07/19 00:12:23;;;;;;;4.38;2.03;;;22.00;54.30;;;;;;5046321;28;20628;-62
2022/07/19 00:14:48;;;;;;;1.45;1.20;;;22.00;54.40;;;;;;5046300;28;20036;-62
2022/07/19 00:17:14;;;;;;;1.88;1.38;;;22.00;54.30;;;;;;5045848;28;20053;-62
2022/07/19 00:19:39;;;;;;;2.53;1.63;;;22.00;54.30;;;;;;5045249;28;20400;-62
2022/07/19 00:22:06;;;;;;;1.88;1.27;;;22.00;54.40;;;;;;5041082;28;20033;-62
2022/07/19 00:24:31;;;;;;;1.63;1.50;;;22.00;55.00;;;;;;5045727;28;20048;-62
2022/07/19 00:26:57;;;;;;;1.63;1.42;;;22.00;54.30;;;;;;5045193;28;20029;-62
2022/07/19 00:29:22;;;;;;;1.80;1.40;;;22.00;54.30;;;;;;5045194;28;20025;-62
2022/07/19 00:31:47;;;;;;;1.80;1.58;;;22.00;54.30;;;;;;5045706;28;20021;-62
2022/07/19 00:34:13;;;;;;;1.83;1.33;;;22.00;54.30;;;;;;5046015;28;20690;-62
2022/07/19 00:36:38;;;;;;;2.10;1.30;;;22.00;54.30;;;;;;5045839;28;20152;-62
2022/07/19 00:39:04;;;;;;;2.22;1.50;;;22.00;54.20;;;;;;5045477;28;20033;-62
2022/07/19 00:41:29;;;;;;;2.33;1.65;;;22.00;54.20;;;;;;5045586;28;20025;-62
2022/07/19 00:43:56;;;;;;;2.70;1.27;;;22.00;54.20;;;;;;5046192;28;20500;-62
2022/07/19 00:46:22;;;;;;;2.88;1.65;;;21.90;54.20;;;;;;5049576;28;20037;-62
2022/07/19 00:48:48;;;;;;;2.05;1.40;;;22.00;54.20;;;;;;5049498;28;20091;-62
2022/07/19 00:51:14;;;;;;;1.58;1.20;;;22.00;54.30;;;;;;5049634;28;20045;-62
2022/07/19 00:53:40;;;;;;;3.33;1.90;;;21.90;54.20;;;;;;5031625;28;20040;-62
2022/07/19 00:56:06;;;;;;;1.60;1.50;;;22.00;54.30;;;;;;5049218;28;20025;-62
2022/07/19 00:58:32;;;;;;;3.53;1.52;;;21.90;54.20;;;;;;5049311;28;20033;-62
2022/07/19 01:00:58;;;;;;;2.45;1.35;;;22.00;54.30;;;;;;5031362;28;20466;-62
2022/07/19 01:03:24;;;;;;;2.55;1.55;;;21.90;54.90;;;;;;5031881;28;20515;-62
2022/07/19 01:05:51;;;;;;;2.83;1.55;;;21.90;54.30;;;;;;5049132;28;20025;-63
2022/07/19 01:08:17;;;;;;;1.75;1.35;;;22.00;54.40;;;;;;5048912;28;22256;-63
2022/07/19 01:10:42;;;;;;;3.25;1.60;;;21.90;54.30;;;;;;5049091;28;20037;-62
2022/07/19 01:13:08;;;;;;;1.75;1.40;;;21.90;54.30;;;;;;5048741;28;20537;-62
2022/07/19 01:15:33;;;;;;;2.00;1.50;;;21.90;54.40;;;;;;5031078;28;20029;-62
2022/07/19 01:17:59;;;;;;;2.53;1.70;;;21.90;54.40;;;;;;5048945;28;20025;-62
2022/07/19 01:20:25;;;;;;;1.50;1.30;;;22.00;54.40;;;;;;5049190;28;20615;-62
2022/07/19 01:22:50;;;;;;;1.73;1.25;;;21.90;54.30;;;;;;5048584;28;20116;-62
2022/07/19 01:25:16;;;;;;;2.35;1.77;;;22.00;54.40;;;;;;5048376;28;20025;-62
2022/07/19 01:27:46;;;;;;;4.00;1.60;;;22.00;54.50;;;;;;5048657;28;20417;-62
2022/07/19 01:30:22;;;;;;;1.30;1.20;;;22.00;54.50;;;;;;5048421;28;20487;-65
2022/07/19 01:32:48;;;;;;;1.92;1.50;;;22.00;54.50;;;;;;5048285;28;20116;-63
2022/07/19 01:35:14;;;;;;;2.17;1.48;;;22.00;54.60;;;;;;5048240;28;20160;-62
2022/07/19 01:37:39;;;;;;;2.00;1.45;;;21.90;54.50;;;;;;5038546;28;20033;-62
2022/07/19 01:40:06;;;;;;;2.72;1.80;;;21.90;54.60;;;;;;5048490;28;20091;-62
2022/07/19 01:42:32;;;;;;;2.58;1.65;;;22.00;54.70;;;;;;5048307;28;20033;-63
2022/07/19 01:44:57;;;;;;;1.75;1.52;;;21.90;54.70;;;;;;5048668;28;20525;-62
2022/07/19 01:47:23;;;;;;;2.47;1.30;;;22.00;54.70;;;;;;5047657;28;22529;-62
2022/07/19 01:49:48;;;;;;;2.30;1.60;;;22.00;54.80;;;;;;5048116;28;20090;-62
2022/07/19 01:52:14;;;;;;;2.08;1.40;;;22.00;54.80;;;;;;5048493;28;20029;-63
2022/07/19 01:54:39;;;;;;;2.15;1.20;;;21.90;54.70;;;;;;5048617;28;20132;-63
2022/07/19 01:57:05;;;;;;;2.70;1.45;;;22.00;54.80;;;;;;5047859;28;20539;-62
2022/07/19 01:59:31;;;;;;;1.60;1.50;;;22.00;54.80;;;;;;5048183;28;20037;-62
2022/07/19 02:01:56;;;;;;;2.42;1.52;;;21.90;54.80;;;;;;5048594;28;20045;-63
2022/07/19 02:04:22;;;;;;;3.03;1.58;;;21.90;55.10;;;;;;5047797;28;20025;-62
2022/07/19 02:06:47;;;;;;;1.90;1.38;;;21.90;54.70;;;;;;5047760;28;20029;-62
2022/07/19 02:09:13;;;;;;;1.70;1.40;;;21.90;54.70;;;;;;5047536;28;20095;-62
2022/07/19 02:11:38;;;;;;;1.52;1.42;;;22.00;54.70;;;;;;5048256;28;20094;-63
2022/07/19 02:14:04;;;;;;;2.55;1.60;;;22.00;54.70;;;;;;5047451;28;20108;-62
2022/07/19 02:16:30;;;;;;;2.25;1.50;;;22.00;54.70;;;;;;5047520;28;20040;-63
2022/07/19 02:18:55;;;;;;;1.85;1.38;;;22.00;54.70;;;;;;5047781;28;20022;-63
2022/07/19 02:21:21;;;;;;;2.55;1.42;;;22.00;54.60;;;;;;5047372;28;20037;-62
2022/07/19 02:23:46;;;;;;;2.28;1.58;;;22.00;54.60;;;;;;5047530;28;20029;-62
2022/07/19 02:26:12;;;;;;;2.08;1.42;;;22.00;54.50;;;;;;5047756;28;20036;-62
2022/07/19 02:28:37;;;;;;;2.80;1.40;;;22.00;54.50;;;;;;5046979;28;20025;-62
2022/07/19 02:31:04;;;;;;;1.83;1.25;;;22.00;54.50;;;;;;5047413;28;20033;-63
2022/07/19 02:33:29;;;;;;;3.17;1.25;;;22.00;54.40;;;;;;5036639;28;20120;-62
2022/07/19 02:35:54;;;;;;;2.53;1.50;;;22.00;54.40;;;;;;5048133;28;20119;-63
2022/07/19 02:38:20;;;;;;;2.50;1.40;;;22.00;54.40;;;;;;5047330;28;20067;-62
2022/07/19 02:40:46;;;;;;;3.03;1.45;;;22.00;54.40;;;;;;5047397;28;20537;-62
2022/07/19 02:43:11;;;;;;;1.58;1.40;;;22.00;54.40;;;;;;5047405;28;20051;-62
2022/07/19 02:45:36;;;;;;;2.03;1.00;;;22.00;54.40;;;;;;5047453;28;20021;-62
2022/07/19 02:48:04;;;;;;;4.05;1.73;;;22.00;54.40;;;;;;5047219;28;20582;-62
2022/07/19 02:50:30;;;;;;;4.03;1.35;;;22.00;54.40;;;;;;5047044;28;20037;-62
2022/07/19 02:52:55;;;;;;;1.50;1.40;;;22.00;54.40;;;;;;5047499;28;20087;-62
2022/07/19 02:55:21;;;;;;;3.03;1.30;;;22.00;54.30;;;;;;5047233;28;20029;-62
2022/07/19 02:57:46;;;;;;;1.92;1.40;;;22.00;54.30;;;;;;5046879;28;20444;-62
2022/07/19 03:00:12;;;;;;;3.97;1.30;;;22.00;54.30;;;;;;5046416;28;20021;-62
2022/07/19 03:02:38;;;;;;;2.60;1.67;;;22.00;54.20;;;;;;5046585;28;20083;-62
2022/07/19 03:05:04;;;;;;;2.58;1.52;;;22.00;54.20;;;;;;5044679;28;20079;-62
2022/07/19 03:07:29;;;;;;;1.40;1.17;;;22.00;54.10;;;;;;5046870;28;20037;-62
2022/07/19 03:09:55;;;;;;;2.22;1.52;;;22.00;54.10;;;;;;5046873;28;20032;-62
2022/07/19 03:12:21;;;;;;;3.17;1.80;;;22.00;54.10;;;;;;5046559;28;20028;-62
2022/07/19 03:14:46;;;;;;;2.40;1.50;;;22.00;54.10;;;;;;5046952;28;20032;-62
2022/07/19 03:17:12;;;;;;;4.05;1.38;;;22.00;54.00;;;;;;5046625;28;20033;-62
2022/07/19 03:19:37;;;;;;;2.30;1.20;;;22.00;54.10;;;;;;5046125;28;20041;-62
2022/07/19 03:22:03;;;;;;;2.63;1.50;;;22.00;54.00;;;;;;5046389;28;20027;-62
2022/07/19 03:24:28;;;;;;;2.53;1.40;;;22.00;54.00;;;;;;5046396;28;20674;-62
2022/07/19 03:26:54;;;;;;;3.20;1.40;;;22.00;54.00;;;;;;5047241;28;20040;-62
2022/07/19 03:29:19;;;;;;;1.65;1.25;;;22.00;54.00;;;;;;5046213;28;20044;-62
2022/07/19 03:31:45;;;;;;;2.33;1.63;;;22.00;54.00;;;;;;5043119;28;20146;-62
2022/07/19 03:34:10;;;;;;;4.88;1.55;;;22.00;54.00;;;;;;5045823;28;20029;-62
2022/07/19 03:36:36;;;;;;;2.10;1.52;;;21.90;54.00;;;;;;5046340;28;20037;-62
2022/07/19 03:39:01;;;;;;;3.30;1.65;;;22.00;54.00;;;;;;5046078;28;20099;-62
2022/07/19 03:41:27;;;;;;;2.70;1.45;;;22.00;54.00;;;;;;5046630;28;20041;-62
2022/07/19 03:43:52;;;;;;;1.67;1.35;;;21.90;53.90;;;;;;5059041;22;20068;-72
2022/07/19 03:46:20;;;;;;;2.60;1.48;;;22.00;53.90;;;;;;5028133;28;21017;-73
2022/07/19 03:48:46;;;;;;;2.38;1.60;;;22.00;53.90;;;;;;5011538;28;20041;-72
2022/07/19 03:51:12;;;;;;;3.35;1.88;;;21.90;53.90;;;;;;5028219;28;20488;-72
2022/07/19 03:53:37;;;;;;;1.63;1.33;;;22.00;53.90;;;;;;5044460;28;20061;-72
2022/07/19 03:56:03;;;;;;;2.20;1.60;;;22.00;53.90;;;;;;5028029;28;20032;-72
2022/07/19 03:58:28;;;;;;;2.08;1.35;;;21.90;53.80;;;;;;5011076;28;20175;-72
2022/07/19 04:00:54;;;;;;;2.08;1.35;;;22.00;53.80;;;;;;5043389;28;20025;-73
2022/07/19 04:03:19;;;;;;;1.92;1.65;;;21.90;53.80;;;;;;5044654;28;20116;-72
2022/07/19 04:05:45;;;;;;;2.65;1.27;;;22.00;53.80;;;;;;5030139;28;20037;-72
2022/07/19 04:08:10;;;;;;;1.98;1.35;;;21.90;53.80;;;;;;5010652;28;20037;-73
2022/07/19 04:10:36;;;;;;;3.00;1.70;;;22.00;53.90;;;;;;5027591;28;20033;-72
2022/07/19 04:13:01;;;;;;;2.00;1.50;;;21.90;53.90;;;;;;5011094;28;20036;-72
2022/07/19 04:15:27;;;;;;;3.20;1.55;;;22.00;54.00;;;;;;5037528;28;20448;-72
2022/07/19 04:17:52;;;;;;;1.52;1.30;;;21.90;53.90;;;;;;5045864;28;20365;-72
2022/07/19 04:20:18;;;;;;;2.08;1.40;;;21.90;54.00;;;;;;5022104;28;20045;-72
2022/07/19 04:22:43;;;;;;;1.90;1.35;;;21.90;54.10;;;;;;5031705;28;20057;-72
2022/07/19 04:25:09;;;;;;;1.65;1.30;;;21.90;54.00;;;;;;5037135;28;20071;-73
2022/07/19 04:27:35;;;;;;;2.70;2.17;;;22.00;54.10;;;;;;5048486;28;20508;-72
2022/07/19 04:30:00;;;;;;;2.38;1.60;;;22.00;54.10;;;;;;5024395;28;20148;-72
2022/07/19 04:32:26;;;;;;;2.63;1.45;;;21.90;54.10;;;;;;4996151;28;20029;-73
2022/07/19 04:34:51;;;;;;;1.73;1.63;;;21.90;54.10;;;;;;5034388;28;20044;-72
2022/07/19 04:37:17;;;;;;;1.77;1.58;;;21.90;54.00;;;;;;5014917;28;20052;-73
2022/07/19 04:39:42;;;;;;;3.00;1.58;;;22.00;54.10;;;;;;5031395;28;20159;-72
2022/07/19 04:42:08;;;;;;;2.72;1.25;;;22.00;54.00;;;;;;5048262;28;20021;-72
2022/07/19 04:44:33;;;;;;;2.42;1.67;;;21.90;53.90;;;;;;5047734;28;20547;-72
2022/07/19 04:46:59;;;;;;;2.38;1.83;;;22.00;53.90;;;;;;5031898;28;20025;-73
2022/07/19 04:49:24;;;;;;;1.50;1.40;;;22.00;53.80;;;;;;5055702;23;19990;-48
2022/07/19 04:51:50;;;;;;;1.77;1.10;;;22.00;53.70;;;;;;5048337;28;20030;-49
2022/07/19 04:54:15;;;;;;;1.20;1.10;;;22.00;53.60;;;;;;5047144;28;20021;-50
2022/07/19 04:56:41;;;;;;;1.50;1.20;;;22.10;53.50;;;;;;5047876;28;20063;-49
2022/07/19 04:59:06;;;;;;;1.38;1.23;;;22.00;53.40;;;;;;5062129;28;20032;-52
2022/07/19 05:01:32;;;;;;;1.58;1.10;;;22.00;53.30;;;;;;5048493;28;20041;-48
2022/07/19 05:03:58;;;;;;;1.73;1.10;;;22.10;53.30;;;;;;5048119;28;20132;-48
2022/07/19 05:06:24;;;;;;;1.17;1.08;;;22.10;53.20;;;;;;5046940;28;21541;-50
2022/07/19 05:08:51;;;;;;;2.42;1.02;;;22.10;53.20;;;;;;5046343;28;20036;-48
2022/07/19 05:11:17;;;;;;;1.30;1.20;;;22.10;53.10;;;;;;5029260;28;20099;-49
2022/07/19 05:13:42;;;;;;;2.45;1.15;;;22.10;53.10;;;;;;5047029;28;20052;-48
2022/07/19 05:16:08;;;;;;;1.83;1.15;;;22.10;53.00;;;;;;5046684;28;20029;-48
2022/07/19 05:18:34;;;;;;;1.58;1.48;;;22.10;53.00;;;;;;5061927;28;20093;-48
2022/07/19 05:20:59;;;;;;;2.78;1.50;;;22.10;52.90;;;;;;5046451;28;20470;-49
2022/07/19 05:23:25;;;;;;;1.63;1.35;;;22.20;52.90;;;;;;5062744;28;20037;-48
2022/07/19 05:25:50;;;;;;;1.85;1.63;;;22.20;52.90;;;;;;5046552;28;20029;-48
2022/07/19 05:28:15;;;;;;;1.92;1.67;;;22.20;52.90;;;;;;5046635;28;20091;-49
2022/07/19 05:30:43;;;;;;;3.70;1.70;;;22.20;52.80;;;;;;5045014;28;20620;-49
2022/07/19 05:33:08;;;;;;;1.40;1.30;;;22.20;52.80;;;;;;5046490;28;20119;-49
2022/07/19 05:35:34;;;;;;;2.17;1.38;;;22.20;52.70;;;;;;5048934;28;20116;-48
2022/07/19 05:37:59;;;;;;;1.60;1.50;;;22.20;52.70;;;;;;5066671;28;20847;-48
2022/07/19 05:40:25;;;;;;;3.92;1.20;;;22.20;52.60;;;;;;5065921;28;20090;-51
2022/07/19 05:42:50;;;;;;;1.20;1.00;;;22.20;52.60;;;;;;5066729;28;20049;-49
2022/07/19 05:45:16;;;;;;;1.58;1.20;;;22.30;52.60;;;;;;5066171;28;20021;-46
2022/07/19 05:47:41;;;;;;;2.28;1.50;;;22.30;52.40;;;;;;5066466;28;20406;-48
2022/07/19 05:50:07;;;;;;;2.10;1.38;;;22.30;52.40;;;;;;5065568;28;20036;-49
2022/07/19 05:52:33;;;;;;;1.42;1.30;;;22.30;52.40;;;;;;5066285;28;20039;-47
2022/07/19 05:54:58;;;;;;;1.13;1.00;;;22.30;52.40;;;;;;5066530;28;20511;-49
2022/07/19 05:57:24;;;;;;;3.40;1.50;;;22.30;52.30;;;;;;5051238;28;20039;-48
2022/07/19 05:59:49;;;;;;;4.53;1.60;;;22.30;52.30;;;;;;5045345;28;20033;-49
2022/07/19 06:02:16;;;;;;;1.58;1.30;;;22.30;52.30;;;;;;5045925;28;20025;-48
2022/07/19 06:04:41;;;;;;;2.40;1.40;;;22.30;52.00;;;;;;5045749;28;20116;-48
2022/07/19 06:07:07;;;;;;;1.45;1.13;;;22.30;52.20;;;;;;5045789;28;20027;-48
2022/07/19 06:09:33;;;;;;;1.88;1.20;;;22.30;52.00;;;;;;5045263;28;20411;-49
2022/07/19 06:11:58;;;;;;;2.13;1.40;;;22.40;51.70;;;;;;5046495;28;20611;-49
2022/07/19 06:14:24;;;;;;;3.22;1.55;;;22.40;51.80;;;;;;5045788;28;20406;-53
2022/07/19 06:16:49;;;;;;;1.92;1.58;;;22.50;51.50;;;;;;5046127;28;20037;-52
2022/07/19 06:19:15;;;;;;;2.00;1.48;;;22.50;51.30;;;;;;5044870;28;20021;-50
2022/07/19 06:21:40;;;;;;;1.45;1.25;;;22.60;51.30;;;;;;5045897;28;20459;-52
2022/07/19 06:24:06;;;;;;;4.25;2.05;;;22.60;51.10;;;;;;5027911;28;20021;-50
2022/07/19 06:26:31;;;;;;;2.45;1.95;;;22.60;51.00;;;;;;5046036;28;20494;-49
2022/07/19 06:28:57;;;;;;;1.98;1.48;;;22.60;50.80;;;;;;5045303;28;20503;-49
2022/07/19 06:31:23;;;;;;;5.00;1.90;;;22.70;50.80;;;;;;5045619;28;20112;-53
2022/07/19 06:33:49;;;;;;;4.63;1.92;;;22.70;50.80;;;;;;5038606;28;20439;-52
2022/07/19 06:36:14;;;;;;;3.22;1.50;;;22.70;50.70;;;;;;5045937;28;20557;-53
2022/07/19 06:38:41;;;;;;;2.40;1.85;;;22.70;50.70;;;;;;5045304;28;20036;-53
2022/07/19 06:41:06;;;;;;;1.92;1.65;;;22.70;50.80;;;;;;5045756;28;20033;-51
2022/07/19 06:43:32;;;;;;;3.97;1.55;;;22.70;50.70;;;;;;5044855;28;20110;-51
2022/07/19 06:45:57;;;;;;;5.88;1.92;;;22.80;50.70;;;;;;5045605;28;20120;-48
2022/07/19 06:48:23;;;;;;;2.47;1.50;;;22.80;50.50;;;;;;5044778;28;20039;-49
2022/07/19 06:50:48;;;;;;;3.38;1.60;;;22.80;50.50;;;;;;5044755;28;20087;-52
2022/07/19 06:53:14;;;;;;;2.17;1.70;;;22.90;50.50;;;;;;5027223;28;20503;-49
2022/07/19 06:55:39;;;;;;;3.97;2.15;;;22.90;50.70;;;;;;5027146;28;20025;-52
2022/07/19 06:58:05;;;;;;;3.20;2.15;;;22.90;50.70;;;;;;5043977;28;20035;-52
2022/07/19 07:00:30;;;;;;;3.85;2.00;;;23.00;51.30;;;;;;5044255;28;20021;-50
2022/07/19 07:02:56;;;;;;;3.38;2.08;;;23.00;50.70;;;;;;5045044;28;20032;-52
2022/07/19 07:05:21;;;;;;;6.15;2.63;;;23.00;51.00;;;;;;5044538;28;20363;-50
2022/07/19 07:07:48;;;;;;;4.20;2.05;;;23.00;50.70;;;;;;5045026;28;20033;-48
2022/07/19 07:10:14;;;;;;;2.20;1.98;;;23.10;50.90;;;;;;5044455;28;20029;-49
2022/07/19 07:12:39;;;;;;;2.67;2.20;;;23.10;50.70;;;;;;5044475;28;20053;-52
2022/07/19 07:15:06;;;;;;;3.72;1.95;;;23.10;50.70;;;;;;5044532;28;20029;-49
2022/07/19 07:17:32;;;;;;;4.68;2.33;;;23.10;50.50;;;;;;5027046;28;20033;-50
2022/07/19 07:19:57;;;;;;;5.28;2.10;;;23.20;50.30;;;;;;5043689;28;20491;-50
2022/07/19 07:22:23;;;;;;;5.25;2.40;;;23.20;50.30;;;;;;5026933;28;20496;-48
2022/07/19 07:24:48;;;;;;;2.45;2.00;;;23.20;50.30;;;;;;5044041;28;20495;-49
2022/07/19 07:27:14;;;;;;;3.42;2.05;;;23.20;50.90;;;;;;5026128;28;20025;-49
2022/07/19 07:29:39;;;;;;;3.67;1.88;;;23.20;50.30;;;;;;5043684;28;20561;-48
2022/07/19 07:32:05;;;;;;;2.45;1.80;;;23.30;50.50;;;;;;5044566;28;20029;-48
2022/07/19 07:34:30;;;;;;;5.93;2.40;;;23.30;50.30;;;;;;5043809;28;20076;-47
2022/07/19 07:36:56;;;;;;;3.80;2.05;;;23.30;50.20;;;;;;5045188;28;20029;-49
2022/07/19 07:39:21;;;;;;;3.50;2.13;;;23.40;50.30;;;;;;5042998;28;20024;-49
2022/07/19 07:41:47;;;;;;;3.60;2.10;;;23.40;50.10;;;;;;5045002;28;20020;-52
2022/07/19 07:44:14;;;;;;;4.05;2.42;;;23.40;50.00;;;;;;5044303;28;20549;-52
2022/07/19 07:46:39;;;;;;;8.48;2.60;;;23.40;49.80;;;;;;5044708;28;20429;-51
2022/07/19 07:49:05;;;;;;;6.57;2.17;;;23.40;49.60;;;;;;5042266;28;20037;-53
2022/07/19 07:51:30;;;;;;;2.15;1.88;;;23.40;49.60;;;;;;5044863;28;20091;-51
2022/07/19 07:53:56;;;;;;;4.32;2.28;;;23.40;49.70;;;;;;5043261;28;20479;-53
2022/07/19 07:56:22;;;;;;;5.25;2.30;;;23.40;49.70;;;;;;5026137;28;20482;-53
2022/07/19 07:58:47;;;;;;;4.80;1.90;;;23.30;49.40;;;;;;5043816;28;20699;-52
2022/07/19 08:01:13;;;;;;;3.55;2.10;;;23.40;49.80;;;;;;5043983;28;20036;-53
2022/07/19 08:03:38;;;;;;;4.25;1.92;;;23.40;49.30;;;;;;5043979;28;20025;-48
2022/07/19 08:06:04;;;;;;;7.15;2.13;;;23.50;49.40;;;;;;5043910;28;20049;-50
2022/07/19 08:08:29;;;;;;;5.18;2.10;;;23.50;49.30;;;;;;5043871;28;20055;-52
2022/07/19 08:10:55;;;;;;;4.57;2.20;;;23.50;49.20;;;;;;5025657;28;20060;-53
2022/07/19 08:13:21;;;;;;;2.33;2.08;;;23.60;49.00;;;;;;5043636;28;20065;-53
2022/07/19 08:15:46;;;;;;;4.03;2.20;;;23.60;48.90;;;;;;5043930;28;20051;-52
2022/07/19 08:18:12;;;;;;;5.35;2.20;;;23.60;48.80;;;;;;5044016;28;20468;-52
2022/07/19 08:20:37;;;;;;;4.10;2.20;;;23.60;48.50;;;;;;5043274;28;20029;-55
2022/07/19 08:23:03;;;;;;;4.18;2.30;;;23.60;48.20;;;;;;5044156;28;20385;-52
2022/07/19 08:25:29;;;;;;;3.40;1.95;;;23.60;48.30;;;;;;5044561;28;20044;-50
2022/07/19 08:27:54;;;;;;;5.78;2.03;;;23.60;47.90;;;;;;5044436;28;20037;-50
2022/07/19 08:30:20;;;;;;;8.50;2.05;;;23.60;47.40;;;;;;5043368;28;20033;-53
2022/07/19 08:32:45;;;;;;;3.10;1.80;;;23.70;46.90;;;;;;5043854;28;20453;-51
2022/07/19 08:35:11;;;;;;;5.35;1.80;;;23.70;46.60;;;;;;5044134;28;20055;-54
2022/07/19 08:37:36;;;;;;;2.25;1.88;;;23.70;46.40;;;;;;5059573;28;20025;-50
2022/07/19 08:40:03;;;;;;;4.03;1.80;;;23.70;46.20;;;;;;5043223;28;20456;-52
2022/07/19 08:42:28;;;;;;;4.20;2.10;;;23.80;46.10;;;;;;5026760;28;20032;-54
2022/07/19 08:44:54;;;;;;;3.65;1.88;;;23.70;46.50;;;;;;5042555;28;20028;-51
2022/07/19 08:47:20;;;;;;;3.28;1.70;;;23.60;46.40;;;;;;5043474;28;20060;-50
2022/07/19 08:49:46;;;;;;;3.38;1.98;;;23.70;46.00;;;;;;5043400;28;20079;-51
2022/07/19 08:52:11;;;;;;;3.22;2.08;;;23.70;46.00;;;;;;5044153;28;20086;-52
2022/07/19 08:54:37;;;;;;;6.30;1.83;;;23.70;45.60;;;;;;5043628;28;20033;-52
2022/07/19 08:59:47;;;;;;;4.03;1.90;;;23.80;45.50;;;;;;5042849;28;20450;-53
2022/07/19 09:02:12;;;;;;;3.03;1.80;;;23.80;45.50;;;;;;5043772;28;20029;-49
2022/07/19 09:04:38;;;;;;;4.85;2.28;;;23.80;45.50;;;;;;5043769;28;20032;-52
2022/07/19 09:07:03;;;;;;;5.10;2.20;;;23.80;45.30;;;;;;5046706;28;20203;-48
2022/07/19 09:09:34;;;;;;;3.42;2.00;;;23.80;45.10;;;;;;5046883;28;20057;-49
2022/07/19 09:12:00;;;;;;;3.78;2.40;;;23.80;45.10;;;;;;5046836;28;20033;-52
2022/07/19 09:14:31;;;;;;;3.50;1.70;;;23.90;44.90;;;;;;5047096;28;20025;-53
2022/07/19 09:17:09;;;;;;;8.55;2.17;;;23.90;44.80;;;;;;5047270;28;20083;-50
2022/07/19 09:19:37;;;;;;;2.63;1.90;;;23.90;44.50;;;;;;5046295;28;20051;-48
2022/07/19 09:22:06;;;;;;;5.72;2.20;;;23.90;44.70;;;;;;5047100;28;20049;-50
2022/07/19 09:24:36;;;;;;;4.53;2.45;;;23.90;44.10;;;;;;5046948;28;20025;-45
2022/07/19 09:27:06;;;;;;;7.03;2.15;;;23.90;44.80;;;;;;5062726;28;20033;-47
2022/07/19 09:29:33;;;;;;;6.13;2.20;;;23.90;44.40;;;;;;5046561;28;20380;-52
2022/07/19 09:31:59;;;;;;;7.53;2.17;;;23.90;44.30;;;;;;5062907;28;20407;-52
2022/07/19 09:34:29;;;;;;;5.50;2.10;;;23.90;44.10;;;;;;5047041;28;20510;-52
2022/07/19 09:37:10;;;;;;;4.93;2.10;;;23.90;44.40;;;;;;5045718;28;20562;-52
2022/07/19 09:39:39;;;;;;;2.20;2.00;;;23.90;44.20;;;;;;5061389;28;20059;-47
2022/07/19 09:42:04;;;;;;;6.88;2.88;;;23.90;44.20;;;;;;5046691;28;20040;-49
2022/07/19 09:44:30;;;;;;;6.07;2.38;;;24.00;44.00;;;;;;5029271;28;20033;-49
2022/07/19 09:46:55;;;;;;;5.93;2.55;;;24.00;43.70;;;;;;5046554;28;20517;-50
2022/07/19 09:49:21;;;;;;;2.83;2.38;;;24.00;43.70;;;;;;5045996;28;20562;-49
2022/07/19 09:51:48;;;;;;;4.38;2.17;;;24.10;43.40;;;;;;5045684;28;20114;-48
2022/07/19 09:54:19;;;;;;;5.03;2.53;;;24.10;43.20;;;;;;5046339;28;20033;-50
2022/07/19 09:56:45;;;;;;;4.95;2.15;;;24.10;43.10;;;;;;5028653;28;20604;-48
2022/07/19 09:59:11;;;;;;;3.75;2.47;;;24.10;42.90;;;;;;5045947;28;20031;-48
2022/07/19 10:01:37;;;;;;;5.40;2.60;;;24.10;42.80;;;;;;5046146;28;20108;-51
2022/07/19 10:04:12;;;;;;;4.75;2.25;;;24.10;43.00;;;;;;5061714;28;20025;-46
2022/07/19 10:06:38;;;;;;;3.63;2.50;;;24.20;42.60;;;;;;5060982;28;20032;-53
2022/07/19 10:09:04;;;;;;;3.00;2.10;;;24.10;42.80;;;;;;5027880;28;20029;-50
2022/07/19 10:11:30;;;;;;;5.53;2.75;;;24.10;43.10;;;;;;5061786;28;20033;-48
2022/07/19 10:13:56;;;;;;;5.82;2.10;;;24.10;42.80;;;;;;5062048;28;20021;-47
2022/07/19 10:16:41;;;;;;;8.02;2.17;;;24.00;43.20;;;;;;5045987;28;20035;-51
2022/07/19 10:19:38;;;;;;;4.90;2.72;;;24.10;42.40;;;;;;5043054;28;20558;-50
2022/07/19 10:22:04;;;;;;;6.22;2.40;;;24.10;42.00;;;;;;5061246;28;20029;-48
2022/07/19 10:24:45;;;;;;;4.95;2.38;;;24.20;42.80;;;;;;5045450;28;20426;-50
2022/07/19 10:27:12;;;;;;;5.22;2.88;;;24.20;42.40;;;;;;5045438;28;20033;-49
2022/07/19 10:29:37;;;;;;;5.20;2.20;;;24.20;42.50;;;;;;5060556;28;20131;-48
2022/07/19 10:32:05;;;;;;;2.63;2.35;;;24.30;42.00;;;;;;5060973;28;20108;-46
2022/07/19 10:34:32;;;;;;;4.30;2.47;;;24.30;42.40;;;;;;5046313;28;20058;-48
2022/07/19 10:36:57;;;;;;;2.45;2.25;;;24.30;42.00;;;;;;5043938;28;20036;-49
2022/07/19 10:39:29;;;;;;;5.57;2.60;;;24.30;41.90;;;;;;5060597;28;20021;-52
2022/07/19 10:42:17;;;;;;;3.97;2.30;;;24.30;41.60;;;;;;5045122;28;20085;-49
2022/07/19 10:44:55;;;;;;;4.53;2.13;;;24.30;41.80;;;;;;5045607;28;20085;-48
2022/07/19 10:47:40;;;;;;;4.13;2.53;;;24.40;41.70;;;;;;5045238;28;20530;-48
2022/07/19 10:50:10;;;;;;;6.40;2.40;;;24.40;41.60;;;;;;5044821;28;20028;-47
2022/07/19 10:52:39;;;;;;;7.43;2.25;;;24.40;41.50;;;;;;5044882;28;20398;-48
2022/07/19 10:55:27;;;;;;;6.85;2.50;;;24.50;41.30;;;;;;5045164;28;20025;-49
2022/07/19 10:57:58;;;;;;;4.93;2.45;;;24.50;41.20;;;;;;5045290;28;20037;-49
2022/07/19 11:00:28;;;;;;;4.78;2.40;;;24.50;41.30;;;;;;5044528;28;20033;-50
2022/07/19 11:03:22;;;;;;;3.83;2.60;;;24.40;41.20;;;;;;5060404;28;20025;-49
2022/07/19 11:05:50;;;;;;;3.97;2.75;;;24.40;41.40;;;;;;5045314;28;20032;-53
2022/07/19 11:08:15;;;;;;;3.55;2.72;;;24.40;41.60;;;;;;5045250;28;20155;-53
2022/07/19 11:10:41;;;;;;;3.33;2.05;;;24.40;42.20;;;;;;5044649;28;20640;-53
2022/07/19 11:13:07;;;;;;;5.22;2.50;;;24.30;42.20;;;;;;5059934;28;20040;-51
2022/07/19 11:15:32;;;;;;;4.00;2.35;;;24.40;42.20;;;;;;5045691;28;20685;-50
2022/07/19 11:18:00;;;;;;;4.43;2.60;;;24.50;41.90;;;;;;5059669;28;20021;-51
2022/07/19 11:20:26;;;;;;;5.85;3.22;;;24.60;42.20;;;;;;5059337;28;20036;-52
2022/07/19 11:22:52;;;;;;;4.18;2.40;;;24.60;42.20;;;;;;5044950;28;20029;-51
2022/07/19 11:25:33;;;;;;;3.90;2.47;;;24.60;41.90;;;;;;5060142;28;20511;-49
2022/07/19 11:27:59;;;;;;;10.10;2.60;;;24.60;41.90;;;;;;5044671;28;20499;-53
2022/07/19 11:30:25;;;;;;;5.13;2.95;;;24.70;41.90;;;;;;5043259;28;20032;-51
2022/07/19 11:32:55;;;;;;;3.20;2.63;;;24.70;42.10;;;;;;5044469;28;20025;-50
2022/07/19 11:35:21;;;;;;;4.97;2.53;;;24.70;42.10;;;;;;5044307;28;20115;-49
2022/07/19 11:37:47;;;;;;;4.57;2.80;;;24.80;42.50;;;;;;5044570;28;20033;-49
2022/07/19 11:40:13;;;;;;;7.70;2.90;;;24.80;42.40;;;;;;5043617;28;20163;-49
2022/07/19 11:42:40;;;;;;;5.90;2.38;;;24.80;42.30;;;;;;5044250;28;20025;-47
2022/07/19 11:45:16;;;;;;;4.43;2.35;;;24.80;42.10;;;;;;5043691;28;20035;-50
2022/07/19 11:47:43;;;;;;;4.28;2.40;;;24.80;41.90;;;;;;5044319;28;20047;-48
2022/07/19 11:50:10;;;;;;;4.97;2.58;;;24.90;42.40;;;;;;5043627;28;20021;-48
2022/07/19 11:52:55;;;;;;;3.67;2.33;;;24.90;42.50;;;;;;5044075;28;20029;-47
2022/07/19 11:55:25;;;;;;;3.47;2.75;;;24.90;42.50;;;;;;5044262;28;20037;-52
2022/07/19 11:57:50;;;;;;;3.13;2.22;;;25.00;42.60;;;;;;5044090;28;20025;-49
2022/07/19 12:00:16;;;;;;;3.35;2.33;;;25.00;42.80;;;;;;5043295;28;20403;-50
2022/07/19 12:03:03;;;;;;;2.70;2.50;;;25.00;42.30;;;;;;5039660;28;20549;-47
2022/07/19 12:05:30;;;;;;;6.00;2.17;;;25.00;42.20;;;;;;5052154;28;20037;-48
2022/07/19 12:07:58;;;;;;;3.70;2.40;;;25.00;41.80;;;;;;5059663;28;20029;-49
2022/07/19 12:10:43;;;;;;;5.00;2.50;;;25.00;40.60;;;;;;5059191;28;20052;-50
2022/07/19 12:13:11;;;;;;;5.60;2.40;;;25.30;40.10;;;;;;5044503;28;20403;-48
2022/07/19 12:15:52;;;;;;;5.57;2.60;;;25.20;40.10;;;;;;5043978;28;20610;-47
2022/07/19 12:18:48;;;;;;;6.03;2.33;;;25.10;40.10;;;;;;5044202;28;20037;-48
2022/07/19 12:21:15;;;;;;;;;;;25.10;40.50;;;;;;5043945;28;20022;-49
2022/07/19 12:23:40;;;;;;;3.83;2.47;;;25.00;40.70;;;;;;5026223;28;19909;-47
2022/07/19 12:26:06;;;;;;;5.80;2.53;;;25.00;40.40;;;;;;5059305;28;20108;-46
2022/07/19 12:28:31;;;;;;;4.35;2.40;;;25.00;40.50;;;;;;5042191;28;20035;-50
2022/07/19 12:31:01;;;;;;;4.03;2.50;;;25.00;40.00;;;;;;5043931;28;20104;-49
2022/07/19 12:33:27;;;;;;;4.63;2.45;;;25.00;39.80;;;;;;5059347;28;20025;-50
2022/07/19 12:35:52;;;;;;;4.25;2.22;;;25.00;39.60;;;;;;5059381;28;20041;-50
2022/07/19 12:38:27;;;;;;;4.18;2.50;;;25.10;39.20;;;;;;5043817;28;20491;-54
2022/07/19 12:40:53;;;;;;;6.15;2.97;;;25.10;39.30;;;;;;5059768;28;20029;-48
2022/07/19 12:43:18;;;;;;;4.22;2.60;;;25.10;39.00;;;;;;5046246;28;20534;-53
2022/07/19 12:45:46;;;;;;;4.65;2.90;;;25.20;39.50;;;;;;5063191;28;20021;-49
2022/07/19 12:48:12;;;;;;;4.05;2.60;;;25.10;39.20;;;;;;5047246;28;20040;-53